EDT,Max TemperatureF,Mean TemperatureF,Min TemperatureF,Max Dew PointF,MeanDew PointF,Min DewpointF,Max Humidity, Mean Humidity, Min Humidity, Max Sea Level PressureIn, Mean Sea Level PressureIn, Min Sea Level PressureIn, Max VisibilityMiles, Mean VisibilityMiles, Min VisibilityMiles, Max Wind SpeedMPH, Mean Wind SpeedMPH, Max Gust SpeedMPH,PrecipitationIn, CloudCover, Events, WindDirDegrees
2013-6-1,80,72,64,66,63,57,94,78,60,30.00,29.87,29.74,10,9,2,22,11,26,0.41,7,Rain-Thunderstorm,222
2013-6-2,73,67,57,62,57,50,81,71,61,29.97,29.86,29.75,10,10,10,18,14,23,0.00,5,,281
2013-6-3,68,60,52,50,46,36,80,64,33,30.11,30.04,29.98,10,10,10,13,7,,0.00,6,,360
2013-6-4,73,60,48,46,43,41,80,53,34,30.17,30.14,30.10,10,10,10,9,5,,0.00,0,,61
2013-6-5,79,66,53,50,45,41,66,49,34,30.13,30.03,29.92,10,10,10,14,7,21,0.00,0,,63
2013-6-6,69,63,55,57,52,44,87,72,54,29.91,29.86,29.82,10,9,4,12,8,,0.03,6,Rain,46
2013-6-7,70,61,53,54,52,49,94,79,54,29.91,29.87,29.85,10,5,2,12,3,17,0.01,4,,22
2013-6-8,79,63,48,53,48,45,90,62,34,30.05,29.98,29.92,10,8,2,9,1,,0.00,3,,180
2013-6-9,84,75,66,63,57,50,73,56,32,30.06,30.00,29.90,10,10,10,14,7,20,0.00,5,Rain,148
2013-6-10,80,72,66,70,64,57,96,82,50,29.89,29.81,29.75,10,8,2,17,9,23,0.26,6,Rain-Thunderstorm,207
2013-6-11,84,74,64,63,62,58,90,73,43,29.95,29.88,29.82,10,8,3,13,8,20,0.00,4,,271
2013-6-12,91,77,64,70,66,60,84,65,48,29.91,29.81,29.62,10,9,5,13,5,17,0.00,1,Thunderstorm,212
2013-6-13,78,73,64,70,60,51,88,70,42,29.92,29.75,29.62,10,8,2,39,14,53,0.47,6,Rain-Thunderstorm,324
2013-6-14,78,68,59,58,56,52,87,65,42,30.08,30.02,29.92,10,10,8,14,7,18,0.00,2,,358
2013-6-15,80,70,60,63,58,54,81,67,45,30.12,30.04,29.96,10,10,5,12,7,17,0.01,3,Rain,185
2013-6-16,82,74,68,70,65,61,88,73,58,29.95,29.92,29.89,10,9,2,21,10,28,0.33,5,Rain-Thunderstorm,242
2013-6-17,84,76,68,68,64,59,90,72,41,29.98,29.94,29.88,10,6,2,10,6,,0.00,3,,232
2013-6-18,79,70,62,64,60,56,87,69,50,30.04,29.94,29.86,10,9,5,14,6,18,0.00,3,,27
2013-6-19,79,66,54,55,48,42,83,56,28,30.16,30.11,30.05,10,10,10,9,4,,0.00,0,,58
2013-6-20,84,68,55,61,53,48,77,54,38,30.20,30.17,30.14,10,10,10,9,5,,0.00,1,,115
2013-6-21,89,77,66,60,56,51,70,49,28,30.21,30.16,30.08,10,10,10,16,7,22,0.00,0,,183
2013-6-22,91,80,70,68,64,60,73,60,39,30.13,30.09,30.02,10,10,9,14,8,24,0.00,0,,205
2013-6-23,91,80,69,66,63,61,84,62,38,30.12,30.07,30.02,10,9,4,26,7,37,0.00,2,Rain-Thunderstorm,214
2013-6-24,89,78,69,66,64,61,84,63,44,30.11,30.06,29.99,10,9,3,17,10,24,0.01,2,Rain-Thunderstorm,215
2013-6-25,91,80,69,72,67,62,84,65,45,30.01,29.95,29.84,10,9,2,21,10,30,0.05,2,Rain-Thunderstorm,222
2013-6-26,86,76,69,72,67,63,90,75,59,29.93,29.86,29.76,10,9,1,44,9,68,0.29,5,Rain-Thunderstorm,207
2013-6-27,84,78,71,70,68,66,90,77,57,29.80,29.74,29.66,10,8,2,14,5,22,0.09,6,Rain,267
2013-6-28,82,74,66,67,63,56,90,71,48,29.66,29.61,29.56,10,10,5,22,8,34,0.03,4,Rain-Thunderstorm,281
2013-6-29,75,68,62,65,62,58,94,83,66,29.70,29.61,29.55,10,8,2,8,3,,0.17,4,Rain-Thunderstorm,268
2013-6-30,75,68,64,65,62,57,94,81,63,29.89,29.79,29.69,10,8,2,14,7,23,0.42,7,Rain-Thunderstorm,45